Terminal Aerodrome Forecast
Issued by NWS

Home | Current Version | Previous Version | Text Only | Print | Product List | Glossary On
Versions: 1 2 3 4 5 6 7 8 9 10 11 12 13
000
FTAK31 PAJN 272326
TAFASI
TAF
PASI 272326Z 2800/2824 15015G25KT 4SM RA BR BKN015 OVC025
      WS020/18035KT
     FM280400 15010G18KT 6SM -RA BR BKN015 OVC025 WS020/21025KT
     FM280800 15010KT P6SM -SHRA SCT020 OVC030
     FM281400 13007KT P6SM -SHRA BKN025 OVC035
     FM281800 10006KT 6SM -SHRA BKN020 OVC035
     FM282100 14005KT 6SM -SHRA BKN020 OVC035=

USA.gov is the U.S. government's official web portal to all federal, state and local government web resources and services.